Time;durP1;ratioP1;P1;durP2;ratioP2;P2;SDS_P1;SDS_P2;PMS_P1;PMS_P2;Temp;Humidity;BMP_temperature;BMP_pressure;BME280_temperature;BME280_humidity;BME280_pressure;Samples;Min_cycle;Max_cycle;Signal;HPM_P1;HPM_P2
2022/06/08 00:00:03;;;;;;;;;;;;;;;24.99;50.30;99153.44;4325656;33;20052;-93
2022/06/08 00:02:36;;;;;;;;;;;;;;;25.10;49.47;99149.34;4347733;32;19983;-90
2022/06/08 00:05:03;;;;;;;;;;;;;;;24.81;50.61;99144.69;4340508;33;19994;-93
2022/06/08 00:07:30;;;;;;;;;;;;;;;25.14;49.13;99153.56;4341306;33;20046;-91
2022/06/08 00:09:58;;;;;;;;;;;;;;;24.79;50.15;99150.97;4347114;32;19979;-91
2022/06/08 00:12:25;;;;;;;;;;;;;;;24.69;50.28;99155.91;4352525;32;19999;-90
2022/06/08 00:14:52;;;;;;;;;;;;;;;24.90;49.90;99153.94;4343087;32;20030;-92
2022/06/08 00:17:19;;;;;;;;;;;;;;;24.85;49.70;99155.09;4356239;32;19999;-93
2022/06/08 00:19:46;;;;;;;;;;;;;;;24.70;50.10;99147.06;4351493;32;19995;-90
2022/06/08 00:22:12;;;;;;;;;;;;;;;24.92;49.64;99148.53;4352214;32;20042;-91
2022/06/08 00:24:40;;;;;;;;;;;;;;;24.66;50.27;99144.62;4351902;32;20046;-91
2022/06/08 00:27:08;;;;;;;;;;;;;;;24.89;50.30;99152.22;4337450;32;19995;-94
2022/06/08 00:29:35;;;;;;;;;;;;;;;24.35;52.30;99144.44;4356214;32;19971;-94
2022/06/08 00:32:03;;;;;;;;;;;;;;;24.92;50.75;99145.88;4341793;32;20007;-93
2022/06/08 00:34:31;;;;;;;;;;;;;;;24.94;50.45;99144.88;4350003;32;20363;-92
2022/06/08 00:36:58;;;;;;;;;;;;;;;24.71;51.92;99147.91;4341300;33;20042;-89
2022/06/08 00:39:24;;;;;;;;;;;;;;;24.42;53.08;99146.78;4329615;32;19991;-94
2022/06/08 00:41:55;;;;;;;;;;;;;;;24.22;53.24;99139.81;4347822;32;19984;-92
2022/06/08 00:44:23;;;;;;;;;;;;;;;24.43;52.32;99146.69;4328055;33;20363;-93
2022/06/08 00:46:50;;;;;;;;;;;;;;;24.23;52.62;99142.41;4324598;33;20038;-92
2022/06/08 00:49:21;;;;;;;;;;;;;;;24.28;52.59;99144.81;4328590;32;19996;-90
2022/06/08 00:51:49;;;;;;;;;;;;;;;24.29;52.32;99146.53;4335506;32;20001;-92
2022/06/08 00:54:18;;;;;;;;;;;;;;;24.21;53.08;99180.44;4332897;32;20017;-90
2022/06/08 00:56:46;;;;;;;;;;;;;;;23.25;55.36;99267.81;4327591;33;20036;-91
2022/06/08 00:59:13;;;;;;;;;;;;;;;23.35;54.61;99272.59;4321398;33;20058;-93
2022/06/08 01:01:40;;;;;;;;;;;;;;;22.38;57.70;99253.94;4326424;33;20349;-92
2022/06/08 01:04:29;;;;;;;;;;;;;;;23.06;56.08;99229.03;4329216;33;20754;-91
2022/06/08 01:06:58;;;;;;;;;;;;;;;23.34;55.52;99220.69;4329607;32;20051;-94
2022/06/08 01:09:35;;;;;;;;;;;;;;;22.81;56.86;99209.88;4319172;32;19991;-92
2022/06/08 01:12:04;;;;;;;;;;;;;;;22.83;56.74;99213.31;4342887;32;20131;-93
2022/06/08 01:14:34;;;;;;;;;;;;;;;23.31;55.07;99204.16;4343187;32;19979;-94
2022/06/08 01:17:06;;;;;;;;;;;;;;;23.32;55.75;99197.91;4344446;32;19991;-94
2022/06/08 01:19:36;;;;;;;;;;;;;;;23.38;55.41;99195.84;4349491;32;19999;-95
2022/06/08 01:22:04;;;;;;;;;;;;;;;23.67;54.75;99199.78;4362564;32;19982;-95
2022/06/08 01:24:33;;;;;;;;;;;;;;;23.35;56.39;99190.72;4374350;32;19990;-94
2022/06/08 01:27:07;;;;;;;;;;;;;;;23.70;54.41;99184.72;4351783;32;20033;-92
2022/06/08 01:29:36;;;;;;;;;;;;;;;23.61;54.36;99194.78;4370958;32;19975;-92
2022/06/08 01:32:26;;;;;;;;;;;;;;;23.54;55.21;99205.69;4355978;32;20005;-95
2022/06/08 01:35:11;;;;;;;;;;;;;;;23.60;55.82;99203.63;4347981;32;20023;-96
2022/06/08 01:37:47;;;;;;;;;;;;;;;23.70;55.79;99184.72;4373180;32;19995;-96
2022/06/08 01:40:34;;;;;;;;;;;;;;;23.48;57.37;99184.84;4371413;32;20025;-94
2022/06/08 01:43:12;;;;;;;;;;;;;;;23.83;56.20;99180.56;4366165;32;20033;-96
2022/06/08 01:46:05;;;;;;;;;;;;;;;23.66;56.62;99168.97;4371929;32;19994;-96
2022/06/08 01:48:44;;;;;;;;;;;;;;;23.61;56.65;99165.72;4364228;32;19967;-96
2022/06/08 01:51:16;;;;;;;;;;;;;;;23.69;56.73;99153.94;4366132;32;19959;-94
2022/06/08 01:54:04;;;;;;;;;;;;;;;23.61;56.19;99144.59;4369990;32;19993;-94
2022/06/08 01:56:37;;;;;;;;;;;;;;;23.53;56.68;99146.72;4360275;32;20370;-96
2022/06/08 01:59:15;;;;;;;;;;;;;;;23.19;58.48;99158.88;4348533;32;19997;-96
2022/06/08 02:01:45;;;;;;;;;;;;;;;23.18;58.77;99173.03;4308179;32;20047;-94
2022/06/08 02:04:28;;;;;;;;;;;;;;;23.30;58.55;99174.25;4358635;32;19999;-94
2022/06/08 02:06:59;;;;;;;;;;;;;;;23.36;57.74;99181.03;4354667;32;19991;-95
2022/06/08 02:09:37;;;;;;;;;;;;;;;23.20;58.37;99176.47;4370540;32;19971;-96
2022/06/08 02:12:06;;;;;;;;;;;;;;;23.23;58.73;99179.88;4351143;32;19987;-95
2022/06/08 02:14:39;;;;;;;;;;;;;;;23.35;58.48;99198.63;4376377;32;19979;-94
2022/06/08 02:17:27;;;;;;;;;;;;;;;22.85;60.18;99211.50;4371031;32;19964;-96
2022/06/08 02:19:57;;;;;;;;;;;;;;;22.94;59.72;99211.09;4344987;32;19975;-95
2022/06/08 02:22:54;;;;;;;;;;;;;;;22.58;60.82;99213.53;4343626;33;19987;-93
2022/06/08 02:25:33;;;;;;;;;;;;;;;23.16;58.73;99206.53;4326685;32;19994;-96
2022/06/08 02:28:01;;;;;;;;;;;;;;;23.05;58.85;99206.19;4341568;33;19971;-96
2022/06/08 02:30:31;;;;;;;;;;;;;;;23.01;59.20;99207.28;4337796;33;19987;-96
2022/06/08 02:35:54;;;;;;;;;;;;;;;23.15;58.83;99196.91;4348183;33;20046;-95
2022/06/08 02:38:31;;;;;;;;;;;;;;;23.03;58.84;99194.84;4338699;32;20384;-96
2022/06/08 02:40:59;;;;;;;;;;;;;;;22.84;59.66;99204.47;4332720;33;20639;-96
2022/06/08 02:43:40;;;;;;;;;;;;;;;22.74;60.61;99212.78;4345191;32;20050;-92
2022/06/08 02:46:20;;;;;;;;;;;;;;;23.09;59.30;99213.03;4354636;32;20005;-93
2022/06/08 02:48:47;;;;;;;;;;;;;;;23.03;59.64;99209.81;4351756;32;20013;-93
2022/06/08 02:51:14;;;;;;;;;;;;;;;23.00;60.05;99200.25;4344411;32;19995;-94
2022/06/08 02:53:50;;;;;;;;;;;;;;;22.87;59.87;99188.50;4380846;32;19991;-92
2022/06/08 02:56:22;;;;;;;;;;;;;;;22.83;59.62;99161.41;4380080;32;20065;-96
2022/06/08 02:59:07;;;;;;;;;;;;;;;22.93;59.33;99146.00;4349127;32;19983;-93
2022/06/08 03:01:40;;;;;;;;;;;;;;;22.62;61.04;99163.22;4356247;32;20014;-94
2022/06/08 03:04:09;;;;;;;;;;;;;;;22.58;61.19;99161.63;4342229;32;20025;-92
2022/06/08 03:06:48;;;;;;;;;;;;;;;22.42;61.79;99177.25;4344905;32;19995;-92
2022/06/08 03:09:15;;;;;;;;;;;;;;;22.71;60.63;99178.63;4359249;32;19993;-92
2022/06/08 03:11:47;;;;;;;;;;;;;;;22.69;61.25;99175.22;4355256;32;20039;-91
2022/06/08 03:14:15;;;;;;;;;;;;;;;22.55;60.55;99184.66;4340427;32;19994;-92
2022/06/08 03:16:59;;;;;;;;;;;;;;;22.54;60.43;99191.72;4349230;32;20001;-92
2022/06/08 03:19:26;;;;;;;;;;;;;;;22.72;58.99;99185.63;4355587;32;20550;-93
2022/06/08 03:21:54;;;;;;;;;;;;;;;22.47;60.30;99195.53;4359226;32;19980;-92
2022/06/08 03:24:22;;;;;;;;;;;;;;;22.49;60.75;99198.94;4362788;32;20089;-93
2022/06/08 03:26:51;;;;;;;;;;;;;;;22.33;60.83;99208.44;4348277;32;20252;-92
2022/06/08 03:29:20;;;;;;;;;;;;;;;22.46;60.82;99209.63;4338609;32;20673;-92
2022/06/08 03:31:47;;;;;;;;;;;;;;;22.26;61.74;99213.97;4338571;32;19987;-94
2022/06/08 03:34:13;;;;;;;;;;;;;;;22.37;61.88;99217.97;4346287;32;20007;-92
2022/06/08 03:36:41;;;;;;;;;;;;;;;22.33;62.31;99214.56;4342241;32;20002;-91
2022/06/08 03:39:08;;;;;;;;;;;;;;;22.38;60.83;99211.75;4345843;32;20486;-92
2022/06/08 03:41:37;;;;;;;;;;;;;;;22.36;61.35;99214.44;4342923;32;19992;-91
2022/06/08 03:44:04;;;;;;;;;;;;;;;22.22;62.13;99212.41;4335413;33;19991;-94
2022/06/08 03:46:32;;;;;;;;;;;;;;;22.38;61.43;99211.75;4341292;33;19995;-95
2022/06/08 03:48:59;;;;;;;;;;;;;;;22.43;61.14;99212.41;4342749;32;19976;-95
2022/06/08 03:51:27;;;;;;;;;;;;;;;22.34;60.93;99197.00;4344970;32;20404;-91
2022/06/08 03:53:55;;;;;;;;;;;;;;;22.49;60.02;99196.31;4350736;32;20640;-96
2022/06/08 03:56:23;;;;;;;;;;;;;;;22.29;61.76;99192.75;4355417;32;20434;-95
2022/06/08 03:58:52;;;;;;;;;;;;;;;22.38;60.96;99190.66;4353132;32;19998;-96
2022/06/08 04:01:20;;;;;;;;;;;;;;;22.12;61.56;99186.47;4347385;32;19984;-95
2022/06/08 04:03:50;;;;;;;;;;;;;;;22.19;61.42;99188.78;4344976;32;20027;-95
2022/06/08 04:06:21;;;;;;;;;;;;;;;22.18;61.74;99184.44;4347571;32;19995;-94
2022/06/08 04:08:52;;;;;;;;;;;;;;;22.13;62.43;99191.66;4317077;33;20003;-91
2022/06/08 04:11:19;;;;;;;;;;;;;;;22.34;61.26;99187.31;4349055;32;20002;-95
2022/06/08 04:14:05;;;;;;;;;;;;;;;22.39;61.17;99197.62;4361008;32;20045;-95
2022/06/08 04:16:33;;;;;;;;;;;;;;;22.33;62.28;99211.06;4359072;32;19991;-94
2022/06/08 04:19:01;;;;;;;;;;;;;;;22.54;61.78;99202.25;4355046;32;20066;-95
2022/06/08 04:21:29;;;;;;;;;;;;;;;22.81;60.22;99210.75;4338553;32;20400;-95
2022/06/08 04:24:00;;;;;;;;;;;;;;;22.65;61.10;99207.91;4327023;33;20062;-96
2022/06/08 04:26:27;;;;;;;;;;;;;;;22.79;61.43;99211.75;4318289;33;19979;-96
2022/06/08 04:28:57;;;;;;;;;;;;;;;22.84;61.03;99204.47;4331402;33;20055;-92
2022/06/08 04:31:24;;;;;;;;;;;;;;;22.91;61.32;99200.63;4339816;32;19994;-92
2022/06/08 04:33:53;;;;;;;;;;;;;;;22.84;62.18;99209.75;4342918;32;19991;-94
2022/06/08 04:36:21;;;;;;;;;;;;;;;23.14;61.17;99211.06;4356647;32;20038;-93
2022/06/08 04:38:48;;;;;;;;;;;;;;;22.94;61.57;99211.09;4344349;32;20348;-94
2022/06/08 04:41:16;;;;;;;;;;;;;;;23.07;61.03;99206.09;4357526;32;20002;-93
2022/06/08 04:43:43;;;;;;;;;;;;;;;23.23;60.21;99196.59;4365511;32;20038;-89
2022/06/08 04:46:17;;;;;;;;;;;;;;;23.12;60.90;99204.97;4371303;32;20051;-88
2022/06/08 04:48:45;;;;;;;;;;;;;;;23.28;60.56;99193.72;4353611;32;20593;-90
2022/06/08 04:51:14;;;;;;;;;;;;;;;23.19;60.41;99190.56;4367044;32;20013;-90
2022/06/08 04:53:43;;;;;;;;;;;;;;;23.21;60.88;99188.72;4353002;32;19987;-91
2022/06/08 04:56:11;;;;;;;;;;;;;;;23.18;60.98;99188.00;4344238;32;19992;-92
2022/06/08 04:58:38;;;;;;;;;;;;;;;23.25;60.68;99193.87;4361388;32;19987;-92
2022/06/08 05:01:05;;;;;;;;;;;;;;;23.18;61.04;99188.84;4359642;32;20031;-92
2022/06/08 05:03:33;;;;;;;;;;;;;;;23.47;59.95;99177.87;4342851;32;20371;-94
2022/06/08 05:06:00;;;;;;;;;;;;;;;23.31;60.15;99183.00;4346911;32;20005;-92
2022/06/08 05:08:28;;;;;;;;;;;;;;;23.38;60.76;99195.84;4336703;32;19975;-92
2022/06/08 05:10:56;;;;;;;;;;;;;;;23.24;62.04;99197.44;4362276;32;19998;-93
2022/06/08 05:13:23;;;;;;;;;;;;;;;23.60;59.13;99190.41;4356632;32;19995;-90
2022/06/08 05:15:51;;;;;;;;;;;;;;;23.55;59.84;99195.09;4367827;32;20036;-96
2022/06/08 05:18:21;;;;;;;;;;;;;;;23.30;60.15;99197.16;4362211;32;20333;-91
2022/06/08 05:20:50;;;;;;;;;;;;;;;23.30;61.15;99195.38;4357579;32;19995;-93
2022/06/08 05:23:19;;;;;;;;;;;;;;;23.49;60.21;99202.44;4367642;32;20132;-91
2022/06/08 05:25:47;;;;;;;;;;;;;;;23.59;60.24;99204.56;4353665;32;20001;-93
2022/06/08 05:28:14;;;;;;;;;;;;;;;23.60;59.31;99206.28;4361226;32;20013;-91
2022/06/08 05:30:43;;;;;;;;;;;;;;;23.53;59.30;99220.72;4365143;32;20038;-91
2022/06/08 05:33:10;;;;;;;;;;;;;;;23.40;60.45;99215.13;4363410;32;20038;-91
2022/06/08 05:35:39;;;;;;;;;;;;;;;23.43;60.57;99225.56;4366852;32;20784;-90
2022/06/08 05:38:07;;;;;;;;;;;;;;;23.79;58.78;99227.41;4369286;32;19994;-94
2022/06/08 05:40:36;;;;;;;;;;;;;;;23.93;58.01;99218.84;4366550;32;19994;-89
2022/06/08 05:43:05;;;;;;;;;;;;;;;23.88;57.63;99210.28;4348944;32;20013;-93
2022/06/08 05:45:32;;;;;;;;;;;;;;;23.67;59.39;99213.00;4361204;32;19997;-93
2022/06/08 05:47:59;;;;;;;;;;;;;;;23.71;59.38;99220.78;4359003;32;19975;-92
2022/06/08 05:50:28;;;;;;;;;;;;;;;23.92;58.38;99216.25;4361575;32;19997;-94
2022/06/08 05:52:56;;;;;;;;;;;;;;;23.81;59.12;99219.44;4357429;32;20498;-82
2022/06/08 05:55:24;;;;;;;;;;;;;;;23.79;59.48;99229.22;4359325;32;19995;-94
2022/06/08 05:57:52;;;;;;;;;;;;;;;23.95;59.15;99243.41;4349328;32;19997;-94
2022/06/08 06:00:22;;;;;;;;;;;;;;;23.61;60.50;99254.69;4367626;32;19987;-90
2022/06/08 06:02:49;;;;;;;;;;;;;;;23.96;58.60;99255.69;4357587;32;19979;-90
2022/06/08 06:05:17;;;;;;;;;;;;;;;24.10;57.13;99255.88;4360758;32;20009;-94
2022/06/08 06:07:45;;;;;;;;;;;;;;;23.91;58.13;99252.41;4363993;32;20034;-92
2022/06/08 06:10:13;;;;;;;;;;;;;;;23.75;58.79;99251.44;4370571;32;19979;-95
2022/06/08 06:12:40;;;;;;;;;;;;;;;23.85;58.72;99242.12;4362359;32;20022;-95
2022/06/08 06:15:08;;;;;;;;;;;;;;;24.04;58.24;99253.53;4363411;32;19987;-95
2022/06/08 06:17:35;;;;;;;;;;;;;;;24.09;58.86;99246.25;4352975;32;19997;-92
2022/06/08 06:20:03;;;;;;;;;;;;;;;24.25;57.07;99250.75;4367931;32;20134;-95
2022/06/08 06:22:33;;;;;;;;;;;;;;;24.04;57.06;99242.97;4356992;32;20002;-96
2022/06/08 06:25:01;;;;;;;;;;;;;;;23.74;59.88;99239.13;4364703;32;19997;-96
2022/06/08 06:27:29;;;;;;;;;;;;;;;23.93;58.75;99234.72;4354342;32;20371;-95
2022/06/08 06:29:56;;;;;;;;;;;;;;;24.25;57.00;99240.19;4367185;32;20045;-93
2022/06/08 06:32:25;;;;;;;;;;;;;;;24.22;57.72;99237.69;4374994;32;19990;-96
2022/06/08 06:34:52;;;;;;;;;;;;;;;24.20;57.84;99237.78;4375506;32;20004;-95
2022/06/08 06:37:19;;;;;;;;;;;;;;;24.52;58.07;99237.97;4353765;32;20332;-94
2022/06/08 06:39:46;;;;;;;;;;;;;;;24.21;58.22;99243.91;4368405;32;20015;-93
2022/06/08 06:42:15;;;;;;;;;;;;;;;24.30;58.43;99236.38;4365947;32;20005;-83
2022/06/08 06:44:43;;;;;;;;;;;;;;;24.49;58.24;99236.34;4351160;32;19983;-89
2022/06/08 06:47:11;;;;;;;;;;;;;;;24.60;58.03;99230.50;4363089;32;19995;-89
2022/06/08 06:49:38;;;;;;;;;;;;;;;24.89;56.50;99236.94;4362945;32;19991;-90
2022/06/08 06:52:05;;;;;;;;;;;;;;;25.13;55.21;99229.50;4367044;32;19978;-96
2022/06/08 06:54:34;;;;;;;;;;;;;;;25.36;54.86;99220.31;4362973;32;20374;-87
2022/06/08 06:57:02;;;;;;;;;;;;;;;25.27;57.15;99220.81;4369510;32;19966;-88
2022/06/08 06:59:30;;;;;;;;;;;;;;;25.59;54.57;99216.44;4366618;32;20398;-86
2022/06/08 07:01:57;;;;;;;;;;;;;;;25.61;53.55;99206.56;4363247;32;20049;-92
2022/06/08 07:04:24;;;;;;;;;;;;;;;25.66;55.18;99201.03;4353353;32;19978;-94
2022/06/08 07:06:53;;;;;;;;;;;;;;;26.03;53.33;99204.25;4316797;32;36224;-90
2022/06/08 07:09:20;;;;;;;;;;;;;;;26.35;52.03;99189.94;4324675;33;19988;-90
2022/06/08 07:11:47;;;;;;;;;;;;;;;26.37;53.12;99188.06;4310329;33;20008;-92
2022/06/08 07:14:19;;;;;;;;;;;;;;;26.33;53.54;99191.84;4326515;33;20055;-93
2022/06/08 07:16:47;;;;;;;;;;;;;;;26.35;54.28;99189.09;4329137;33;19980;-92
2022/06/08 07:19:15;;;;;;;;;;;;;;;26.58;52.75;99185.97;4311967;33;20318;-89
2022/06/08 07:21:42;;;;;;;;;;;;;;;26.98;51.54;99188.84;4322378;33;19976;-91
2022/06/08 07:24:10;;;;;;;;;;;;;;;26.99;52.08;99187.03;4323268;33;20846;-94
2022/06/08 07:26:36;;;;;;;;;;;;;;;27.37;48.52;99185.50;4319886;33;19999;-94
2022/06/08 07:29:05;;;;;;;;;;;;;;;27.51;48.03;99176.66;4313795;33;19995;-90
2022/06/08 07:31:32;;;;;;;;;;;;;;;27.12;50.49;99175.56;4315851;33;19984;-95
2022/06/08 07:34:00;;;;;;;;;;;;;;;27.48;48.78;99173.34;4330582;33;19983;-91
2022/06/08 07:36:27;;;;;;;;;;;;;;;27.46;49.60;99161.94;4318510;33;20036;-87
2022/06/08 07:38:54;;;;;;;;;;;;;;;27.74;48.89;99161.03;4311077;33;20024;-96
2022/06/08 07:41:21;;;;;;;;;;;;;;;27.90;48.95;99171.53;4314354;33;19952;-95
2022/06/08 07:43:48;;;;;;;;;;;;;;;28.14;48.37;99169.87;4312484;33;20006;-86
2022/06/08 07:46:22;;;;;;;;;;;;;;;28.09;48.66;99177.34;4320622;33;19968;-96
2022/06/08 07:51:35;;;;;;;;;;;;;;;28.21;47.01;99181.00;4310090;33;20018;-90
2022/06/08 07:54:02;;;;;;;;;;;;;;;28.07;48.09;99168.59;4310670;33;19989;-92
2022/06/08 07:56:29;;;;;;;;;;;;;;;27.80;49.15;99177.47;4312908;33;19984;-91
2022/06/08 07:58:56;;;;;;;;;;;;;;;28.44;46.39;99176.81;4315487;33;20456;-87
2022/06/08 08:01:23;;;;;;;;;;;;;;;27.78;48.58;99179.34;4314361;33;20040;-87
2022/06/08 08:03:50;;;;;;;;;;;;;;;27.77;49.03;99177.66;4326845;32;19987;-87
2022/06/08 08:06:17;;;;;;;;;;;;;;;28.07;47.31;99168.59;4353581;32;20429;-94
2022/06/08 08:08:44;;;;;;;;;;;;;;;27.95;45.80;99164.09;4344577;32;20741;-95
2022/06/08 08:11:12;;;;;;;;;;;;;;;27.85;47.55;99168.31;4349403;33;19975;-89
2022/06/08 08:13:39;;;;;;;;;;;;;;;27.83;49.33;99170.25;4343587;33;19992;-79
2022/06/08 08:16:06;;;;;;;;;;;;;;;27.73;48.74;99170.81;4353263;33;19975;-93
2022/06/08 08:18:33;;;;;;;;;;;;;;;28.18;46.01;99171.41;4342369;33;19976;-96
2022/06/08 08:21:00;;;;;;;;;;;;;;;28.18;45.96;99176.72;4356841;33;19960;-90
2022/06/08 08:23:27;;;;;;;;;;;;;;;27.99;46.49;99170.94;4344127;33;19971;-87
2022/06/08 08:25:54;;;;;;;;;;;;;;;28.23;46.85;99173.75;4386715;32;19942;-85
2022/06/08 08:28:20;;;;;;;;;;;;;;;28.18;47.19;99176.72;4390642;32;19990;-83
2022/06/08 08:30:48;;;;;;;;;;;;;;;28.06;48.82;99172.22;4385844;32;19985;-96
2022/06/08 08:33:15;;;;;;;;;;;;;;;28.63;45.35;99179.91;4381200;32;19958;-96
2022/06/08 08:35:42;;;;;;;;;;;;;;;28.93;44.51;99173.38;4361307;32;20010;-93
2022/06/08 08:38:09;;;;;;;;;;;;;;;29.28;44.22;99172.72;4354566;33;20692;-94
2022/06/08 08:40:44;;;;;;;;;;;;;;;29.34;44.21;99169.63;4355555;33;19969;-96
2022/06/08 08:43:12;;;;;;;;;;;;;;;29.71;43.75;99158.94;4358329;33;19959;-95
2022/06/08 08:46:02;;;;;;;;;;;;;;;29.39;45.08;99164.81;4344109;33;19955;-92
2022/06/08 08:48:31;;;;;;;;;;;;;;;29.77;42.33;99169.16;4365838;32;19994;-85
2022/06/08 08:51:06;;;;;;;;;;;;;;;30.00;44.11;99171.00;4363533;32;20007;-96
2022/06/08 08:53:52;;;;;;;;;;;;;;;30.34;41.47;99165.78;4357516;32;20028;-82
2022/06/08 08:56:22;;;;;;;;;;;;;;;30.29;39.73;99171.47;4352669;33;19976;-94
2022/06/08 08:58:48;;;;;;;;;;;;;;;29.80;42.29;99174.28;4349368;32;19959;-85
2022/06/08 09:01:30;;;;;;;;;;;;;;;29.94;40.86;99173.25;4347937;33;20101;-94
2022/06/08 09:04:00;;;;;;;;;;;;;;;30.49;42.25;99167.28;4356745;32;19997;-93
2022/06/08 09:06:28;;;;;;;;;;;;;;;30.40;41.78;99167.97;4365327;32;19956;-80
2022/06/08 09:09:00;;;;;;;;;;;;;;;30.25;41.85;99169.16;4384522;32;19984;-80
2022/06/08 09:11:32;;;;;;;;;;;;;;;30.22;42.09;99169.41;4374316;32;20034;-81
2022/06/08 09:14:14;;;;;;;;;;;;;;;29.86;43.91;99168.47;4373122;32;19963;-83
2022/06/08 09:16:42;;;;;;;;;;;;;;;30.18;43.26;99174.06;4340236;33;19980;-93
2022/06/08 09:19:24;;;;;;;;;;;;;;;30.03;43.08;99172.59;4352832;33;19975;-96
2022/06/08 09:21:53;;;;;;;;;;;;;;;30.25;42.03;99164.69;4351684;33;20743;-91
2022/06/08 09:24:29;;;;;;;;;;;;;;;30.36;41.53;99155.84;4336855;32;19991;-96
2022/06/08 09:27:23;;;;;;;;;;;;;;;30.23;41.20;99155.06;4336547;33;20401;-95
2022/06/08 09:30:11;;;;;;;;;;;;;;;29.61;43.46;99146.31;4344871;33;19998;-95
2022/06/08 09:32:46;;;;;;;;;;;;;;;29.63;44.53;99147.03;4342619;32;19991;-96
2022/06/08 09:35:18;;;;;;;;;;;;;;;29.62;44.25;99142.66;4320724;32;20483;-92
2022/06/08 09:37:46;;;;;;;;;;;;;;;29.85;43.22;99134.78;4349151;32;20006;-94
2022/06/08 09:40:36;;;;;;;;;;;;;;;29.78;43.04;99133.53;4336107;33;20034;-95
2022/06/08 09:43:07;;;;;;;;;;;;;;;29.89;41.48;99125.56;4344470;33;19970;-95
2022/06/08 09:45:40;;;;;;;;;;;;;;;30.12;41.17;99114.00;4348282;33;19996;-94
2022/06/08 09:53:48;;;;;;;;;;;;;;;30.70;41.60;99105.12;4356613;32;20026;-95
2022/06/08 09:56:24;;;;;;;;;;;;;;;31.33;39.77;99097.44;4357362;32;19982;-94
2022/06/08 09:59:13;;;;;;;;;;;;;;;31.45;39.70;99091.94;4349447;32;19955;-95
2022/06/08 10:01:43;;;;;;;;;;;;;;;31.64;40.55;99077.06;4344081;33;19968;-96
2022/06/08 10:04:29;;;;;;;;;;;;;;;31.53;37.79;99082.47;4358388;32;19994;-95
2022/06/08 10:07:14;;;;;;;;;;;;;;;31.46;37.70;99093.66;4358225;32;19991;-90
2022/06/08 10:09:51;;;;;;;;;;;;;;;31.61;37.39;99074.62;4345824;32;19960;-94
2022/06/08 10:12:28;;;;;;;;;;;;;;;31.82;37.25;99072.84;4340748;33;20464;-83
2022/06/08 10:14:56;;;;;;;;;;;;;;;31.88;38.94;99069.69;4328727;33;20047;-96
2022/06/08 10:17:38;;;;;;;;;;;;;;;32.06;37.41;99074.44;4330955;33;19983;-94
2022/06/08 10:20:11;;;;;;;;;;;;;;;32.12;36.14;99066.72;4334827;33;19980;-95
2022/06/08 10:22:42;;;;;;;;;;;;;;;32.55;35.42;99060.38;4343389;32;20101;-95
2022/06/08 10:25:34;;;;;;;;;;;;;;;32.48;35.78;99061.03;4340664;33;20500;-95
2022/06/08 10:28:07;;;;;;;;;;;;;;;32.01;36.99;99055.25;4335368;33;19997;-89
2022/06/08 10:30:54;;;;;;;;;;;;;;;32.36;35.50;99053.06;4343977;32;20022;-94
2022/06/08 10:33:25;;;;;;;;;;;;;;;32.59;35.82;99055.59;4347588;32;20006;-92
2022/06/08 10:35:55;;;;;;;;;;;;;;;32.48;35.02;99047.63;4335309;32;20258;-92
2022/06/08 10:38:23;;;;;;;;;;;;;;;32.33;35.91;99056.00;4336412;33;19987;-95
2022/06/08 10:44:01;;;;;;;;;;;;;;;32.38;36.94;99045.72;4355092;33;19947;-92
2022/06/08 10:46:38;;;;;;;;;;;;;;;32.27;36.34;99043.13;4356894;32;19964;-90
2022/06/08 10:49:11;;;;;;;;;;;;;;;32.24;35.32;99030.00;4360637;32;19943;-95
2022/06/08 10:51:39;;;;;;;;;;;;;;;32.76;33.83;99035.31;4361843;32;21048;-94
2022/06/08 10:57:39;;;;;;;;;;;;;;;32.38;32.52;99032.31;4354508;32;19980;-90
2022/06/08 11:00:15;;;;;;;;;;;;;;;32.00;32.13;99027.59;4337276;33;19984;-90
2022/06/08 11:02:42;;;;;;;;;;;;;;;31.98;32.85;99023.38;4328353;32;20010;-85
2022/06/08 11:05:17;;;;;;;;;;;;;;;31.71;32.34;99022.03;4347614;32;19960;-90
2022/06/08 11:08:00;;;;;;;;;;;;;;;31.76;34.27;99019.81;4366592;32;19955;-95
2022/06/08 11:10:57;;;;;;;;;;;;;;;31.84;33.70;99017.31;4367070;32;19979;-96
2022/06/08 11:13:29;;;;;;;;;;;;;;;32.14;32.45;99024.59;4367561;32;19994;-95
2022/06/08 11:16:15;;;;;;;;;;;;;;;31.42;34.16;99022.66;4355167;32;20039;-84
2022/06/08 11:18:47;;;;;;;;;;;;;;;31.47;33.49;99011.59;4340590;32;19979;-90
2022/06/08 11:21:14;;;;;;;;;;;;;;;31.55;33.12;99016.28;4052678;32;10004268;-87
2022/06/08 11:23:47;;;;;;;;;;;;;;;31.87;31.86;99001.00;4355256;32;20017;-87
2022/06/08 11:26:20;;;;;;;;;;;;;;;31.38;32.13;99004.31;4359613;32;19998;-86
2022/06/08 11:28:50;;;;;;;;;;;;;;;31.23;32.16;99001.06;4353292;32;20026;-91
2022/06/08 11:31:26;;;;;;;;;;;;;;;31.15;32.69;98998.19;4360969;32;19987;-91
2022/06/08 11:34:03;;;;;;;;;;;;;;;30.81;35.64;99003.59;4361404;32;19995;-86
2022/06/08 11:36:36;;;;;;;;;;;;;;;30.65;34.32;98995.09;4355594;32;20038;-86
2022/06/08 11:39:22;;;;;;;;;;;;;;;30.81;34.04;99001.78;4357020;32;20022;-84
2022/06/08 11:42:15;;;;;;;;;;;;;;;30.76;35.90;98997.75;4354640;32;20765;-89
2022/06/08 11:44:46;;;;;;;;;;;;;;;30.81;33.74;98998.25;4336524;32;20760;-89
2022/06/08 11:47:15;;;;;;;;;;;;;;;30.72;33.69;98997.16;4301031;33;934760;-90
2022/06/08 11:49:43;;;;;;;;;;;;;;;30.55;33.91;99001.19;4338907;32;19999;-85
2022/06/08 11:52:17;;;;;;;;;;;;;;;30.78;33.72;98998.50;4357555;32;20537;-85
2022/06/08 11:54:45;;;;;;;;;;;;;;;30.40;34.47;99015.75;4351587;32;19983;-93
2022/06/08 11:57:13;;;;;;;;;;;;;;;30.26;34.19;99010.66;4351778;32;19997;-90
2022/06/08 11:59:43;;;;;;;;;;;;;;;30.08;35.85;99008.41;4340790;32;20856;-90
2022/06/08 12:02:18;;;;;;;;;;;;;;;29.95;35.40;99013.00;4346576;32;19999;-82
2022/06/08 12:04:47;;;;;;;;;;;;;;;30.19;36.13;99012.97;4365584;32;20002;-96
2022/06/08 12:07:30;;;;;;;;;;;;;;;29.44;37.91;99013.31;4355059;32;19979;-88
2022/06/08 12:09:57;;;;;;;;;;;;;;;29.60;36.40;99018.34;4352662;32;20087;-88
2022/06/08 12:12:25;;;;;;;;;;;;;;;30.34;39.31;99013.56;4361629;32;19991;-90
2022/06/08 12:14:52;;;;;;;;;;;;;;;30.15;42.74;99024.81;4339110;32;20001;-90
2022/06/08 12:17:19;;;;;;;;;;;;;;;29.75;45.20;99027.03;4359581;32;20709;-90
2022/06/08 12:19:49;;;;;;;;;;;;;;;29.46;47.36;99019.41;4357042;32;20851;-84
2022/06/08 12:22:20;;;;;;;;;;;;;;;29.89;45.55;99016.16;4343914;32;19991;-90
2022/06/08 12:25:06;;;;;;;;;;;;;;;30.12;44.94;99009.91;4344013;32;19991;-89
2022/06/08 12:27:40;;;;;;;;;;;;;;;30.17;43.98;99011.34;4362163;32;19979;-87
2022/06/08 12:30:19;;;;;;;;;;;;;;;30.39;42.55;99011.38;4358706;32;19979;-91
2022/06/08 12:33:09;;;;;;;;;;;;;;;30.32;42.81;99004.84;4326067;32;20277;-86
2022/06/08 12:35:56;;;;;;;;;;;;;;;30.11;44.47;98997.50;4352905;32;20004;-89
2022/06/08 12:38:30;;;;;;;;;;;;;;;29.76;46.13;99007.38;4345586;32;19999;-86
2022/06/08 12:41:01;;;;;;;;;;;;;;;29.84;44.74;99010.34;4345170;32;19997;-90
2022/06/08 12:43:38;;;;;;;;;;;;;;;29.68;46.71;99010.66;4356763;32;20018;-84
2022/06/08 12:46:09;;;;;;;;;;;;;;;30.16;44.01;99004.31;4344096;32;19983;-86
2022/06/08 12:48:53;;;;;;;;;;;;;;;30.39;43.04;99006.03;4352678;32;19990;-89
2022/06/08 12:51:34;;;;;;;;;;;;;;;30.45;41.61;99000.22;4354256;32;19995;-92
2022/06/08 12:54:02;;;;;;;;;;;;;;;30.29;43.38;99005.09;4370239;32;20560;-92
2022/06/08 12:56:30;;;;;;;;;;;;;;;30.29;43.28;99010.41;4379076;32;19999;-95
2022/06/08 12:58:58;;;;;;;;;;;;;;;30.28;44.14;99016.72;4381957;32;20513;-93
2022/06/08 13:01:29;;;;;;;;;;;;;;;30.40;42.18;99018.41;4362548;32;19971;-94
2022/06/08 13:03:56;;;;;;;;;;;;;;;30.21;42.65;99023.50;4352711;32;19992;-93
2022/06/08 13:06:24;;;;;;;;;;;;;;;30.34;43.73;99021.56;4352726;32;19997;-95
2022/06/08 13:08:52;;;;;;;;;;;;;;;30.05;44.67;99024.66;4354789;32;19993;-91
2022/06/08 13:11:20;;;;;;;;;;;;;;;30.09;43.92;99020.81;4306745;33;20040;-91
2022/06/08 13:13:49;;;;;;;;;;;;;;;30.07;44.51;99017.41;4312449;33;19995;-93
2022/06/08 13:16:21;;;;;;;;;;;;;;;29.93;44.87;99025.63;4308553;33;19996;-91
2022/06/08 13:18:49;;;;;;;;;;;;;;;29.94;43.30;99022.00;4302552;33;19995;-95
2022/06/08 13:21:17;;;;;;;;;;;;;;;30.03;43.44;99026.63;4315410;33;20011;-96
2022/06/08 13:23:45;;;;;;;;;;;;;;;30.09;41.86;99022.62;4337277;33;19990;-96